sensor_id;sensor_type;location;lat;lon;timestamp;P1;durP1;ratioP1;P2;durP2;ratioP2
31336;SDS011;22846;42.654;23.314;2022-07-23T13:04:24;13.50;;;5.63;;
31336;SDS011;22846;42.654;23.314;2022-07-23T13:06:51;10.05;;;5.30;;
31336;SDS011;22846;42.654;23.314;2022-07-23T13:09:17;11.63;;;5.03;;
31336;SDS011;22846;42.654;23.314;2022-07-23T13:11:44;7.45;;;4.70;;
31336;SDS011;22846;42.654;23.314;2022-07-23T13:14:11;9.75;;;4.95;;
31336;SDS011;22846;42.654;23.314;2022-07-23T13:16:37;14.43;;;5.32;;
31336;SDS011;22846;42.654;23.314;2022-07-23T13:19:04;11.32;;;4.90;;
31336;SDS011;22846;42.654;23.314;2022-07-23T13:21:29;9.60;;;4.90;;
31336;SDS011;22846;42.654;23.314;2022-07-23T13:23:55;10.65;;;4.95;;
31336;SDS011;22846;42.654;23.314;2022-07-23T13:26:21;12.88;;;4.55;;
31336;SDS011;22846;42.654;23.314;2022-07-23T13:28:47;10.75;;;4.93;;
31336;SDS011;22846;42.654;23.314;2022-07-23T13:31:12;10.68;;;5.07;;
31336;SDS011;22846;42.654;23.314;2022-07-23T13:33:38;9.15;;;4.43;;
31336;SDS011;22846;42.654;23.314;2022-07-23T13:36:04;11.93;;;4.68;;
31336;SDS011;22846;42.654;23.314;2022-07-23T13:38:30;8.00;;;4.60;;
31336;SDS011;22846;42.654;23.314;2022-07-23T13:40:55;8.35;;;4.70;;
31336;SDS011;22846;42.654;23.314;2022-07-23T13:43:22;7.88;;;4.72;;
31336;SDS011;22846;42.654;23.314;2022-07-23T13:45:49;10.60;;;4.60;;
31336;SDS011;22846;42.654;23.314;2022-07-23T13:48:15;7.57;;;4.32;;
31336;SDS011;22846;42.654;23.314;2022-07-23T13:50:41;9.95;;;5.13;;
31336;SDS011;22846;42.654;23.314;2022-07-23T13:53:11;9.73;;;4.40;;
31336;SDS011;22846;42.654;23.314;2022-07-23T13:55:41;13.80;;;5.28;;
31336;SDS011;22846;42.654;23.314;2022-07-23T13:58:07;13.75;;;5.43;;
31336;SDS011;22846;42.654;23.314;2022-07-23T14:00:35;15.15;;;5.13;;
31336;SDS011;22846;42.654;23.314;2022-07-23T14:03:02;13.02;;;4.90;;
31336;SDS011;22846;42.654;23.314;2022-07-23T14:05:28;14.60;;;5.15;;
31336;SDS011;22846;42.654;23.314;2022-07-23T14:07:53;18.95;;;5.50;;
31336;SDS011;22846;42.654;23.314;2022-07-23T14:10:20;13.82;;;4.90;;
31336;SDS011;22846;42.654;23.314;2022-07-23T14:12:47;15.73;;;5.90;;
31336;SDS011;22846;42.654;23.314;2022-07-23T14:15:14;11.23;;;5.30;;
31336;SDS011;22846;42.654;23.314;2022-07-23T14:17:41;11.07;;;5.38;;
31336;SDS011;22846;42.654;23.314;2022-07-23T14:20:08;18.60;;;6.13;;
31336;SDS011;22846;42.654;23.314;2022-07-23T14:22:35;13.27;;;5.50;;
31336;SDS011;22846;42.654;23.314;2022-07-23T14:25:01;14.10;;;5.22;;
31336;SDS011;22846;42.654;23.314;2022-07-23T14:27:29;14.57;;;5.50;;
31336;SDS011;22846;42.654;23.314;2022-07-23T14:29:55;14.38;;;5.55;;
31336;SDS011;22846;42.654;23.314;2022-07-23T14:32:21;12.18;;;5.05;;
31336;SDS011;22846;42.654;23.314;2022-07-23T14:34:46;13.55;;;5.38;;
31336;SDS011;22846;42.654;23.314;2022-07-23T14:37:12;11.07;;;4.78;;
31336;SDS011;22846;42.654;23.314;2022-07-23T14:39:38;11.05;;;5.03;;
31336;SDS011;22846;42.654;23.314;2022-07-23T14:42:05;9.18;;;4.80;;
31336;SDS011;22846;42.654;23.314;2022-07-23T14:44:31;7.95;;;4.50;;
31336;SDS011;22846;42.654;23.314;2022-07-23T14:46:57;9.43;;;4.63;;
31336;SDS011;22846;42.654;23.314;2022-07-23T14:49:22;13.85;;;4.68;;
31336;SDS011;22846;42.654;23.314;2022-07-23T14:51:48;6.15;;;4.10;;
31336;SDS011;22846;42.654;23.314;2022-07-23T14:54:14;9.18;;;4.43;;
31336;SDS011;22846;42.654;23.314;2022-07-23T14:56:40;13.05;;;6.90;;
31336;SDS011;22846;42.654;23.314;2022-07-23T14:59:06;16.83;;;8.50;;
31336;SDS011;22846;42.654;23.314;2022-07-23T15:01:32;15.23;;;8.10;;
31336;SDS011;22846;42.654;23.314;2022-07-23T15:03:58;13.73;;;7.85;;
31336;SDS011;22846;42.654;23.314;2022-07-23T15:06:23;13.00;;;6.68;;
31336;SDS011;22846;42.654;23.314;2022-07-23T15:08:49;15.40;;;6.80;;
31336;SDS011;22846;42.654;23.314;2022-07-23T15:11:15;15.00;;;6.47;;
31336;SDS011;22846;42.654;23.314;2022-07-23T15:13:40;10.98;;;5.78;;
31336;SDS011;22846;42.654;23.314;2022-07-23T15:16:06;10.88;;;5.40;;
31336;SDS011;22846;42.654;23.314;2022-07-23T15:18:32;10.90;;;6.05;;
31336;SDS011;22846;42.654;23.314;2022-07-23T15:20:57;12.50;;;5.68;;
31336;SDS011;22846;42.654;23.314;2022-07-23T15:23:23;9.98;;;6.32;;
31336;SDS011;22846;42.654;23.314;2022-07-23T15:25:49;31.85;;;21.75;;
31336;SDS011;22846;42.654;23.314;2022-07-23T15:28:14;34.17;;;19.85;;
31336;SDS011;22846;42.654;23.314;2022-07-23T15:30:40;20.38;;;13.15;;
31336;SDS011;22846;42.654;23.314;2022-07-23T15:33:05;27.85;;;17.88;;
31336;SDS011;22846;42.654;23.314;2022-07-23T15:35:31;27.35;;;16.50;;
31336;SDS011;22846;42.654;23.314;2022-07-23T15:37:57;25.58;;;14.68;;
31336;SDS011;22846;42.654;23.314;2022-07-23T15:40:23;21.50;;;14.63;;
31336;SDS011;22846;42.654;23.314;2022-07-23T15:42:48;20.42;;;12.80;;
31336;SDS011;22846;42.654;23.314;2022-07-23T15:45:14;19.13;;;12.80;;
31336;SDS011;22846;42.654;23.314;2022-07-23T15:47:40;18.48;;;11.63;;
31336;SDS011;22846;42.654;23.314;2022-07-23T15:50:06;17.88;;;11.52;;
31336;SDS011;22846;42.654;23.314;2022-07-23T15:52:32;18.48;;;10.60;;
31336;SDS011;22846;42.654;23.314;2022-07-23T15:54:57;15.52;;;10.45;;
31336;SDS011;22846;42.654;23.314;2022-07-23T15:57:23;14.57;;;9.70;;
31336;SDS011;22846;42.654;23.314;2022-07-23T15:59:48;22.35;;;10.07;;
31336;SDS011;22846;42.654;23.314;2022-07-23T16:02:14;19.85;;;9.98;;
31336;SDS011;22846;42.654;23.314;2022-07-23T16:04:40;16.27;;;10.32;;
31336;SDS011;22846;42.654;23.314;2022-07-23T16:07:06;22.00;;;13.50;;
31336;SDS011;22846;42.654;23.314;2022-07-23T16:09:31;13.95;;;9.98;;
31336;SDS011;22846;42.654;23.314;2022-07-23T16:11:57;18.67;;;11.27;;
31336;SDS011;22846;42.654;23.314;2022-07-23T16:14:22;18.35;;;11.60;;
31336;SDS011;22846;42.654;23.314;2022-07-23T16:16:48;15.70;;;11.65;;
31336;SDS011;22846;42.654;23.314;2022-07-23T16:19:13;16.02;;;11.27;;
31336;SDS011;22846;42.654;23.314;2022-07-23T16:21:39;14.52;;;10.70;;
31336;SDS011;22846;42.654;23.314;2022-07-23T16:24:04;19.42;;;11.38;;
31336;SDS011;22846;42.654;23.314;2022-07-23T16:26:30;15.73;;;9.60;;
31336;SDS011;22846;42.654;23.314;2022-07-23T16:28:56;14.75;;;9.95;;
31336;SDS011;22846;42.654;23.314;2022-07-23T16:31:21;13.63;;;9.25;;
31336;SDS011;22846;42.654;23.314;2022-07-23T16:33:47;13.75;;;9.32;;
31336;SDS011;22846;42.654;23.314;2022-07-23T16:36:13;12.15;;;9.00;;
31336;SDS011;22846;42.654;23.314;2022-07-23T16:38:39;11.60;;;9.25;;
31336;SDS011;22846;42.654;23.314;2022-07-23T16:41:05;11.90;;;9.00;;
31336;SDS011;22846;42.654;23.314;2022-07-23T16:43:31;16.73;;;9.45;;
31336;SDS011;22846;42.654;23.314;2022-07-23T16:45:58;12.65;;;8.55;;
31336;SDS011;22846;42.654;23.314;2022-07-23T16:48:26;12.10;;;8.50;;
31336;SDS011;22846;42.654;23.314;2022-07-23T16:50:52;11.60;;;8.70;;
31336;SDS011;22846;42.654;23.314;2022-07-23T16:53:17;11.68;;;8.38;;
31336;SDS011;22846;42.654;23.314;2022-07-23T16:55:43;11.02;;;7.90;;
31336;SDS011;22846;42.654;23.314;2022-07-23T16:58:08;10.35;;;7.68;;
31336;SDS011;22846;42.654;23.314;2022-07-23T17:00:34;10.40;;;7.63;;
31336;SDS011;22846;42.654;23.314;2022-07-23T17:03:00;10.38;;;7.35;;
31336;SDS011;22846;42.654;23.314;2022-07-23T17:05:25;10.02;;;7.25;;
31336;SDS011;22846;42.654;23.314;2022-07-23T17:07:51;13.00;;;7.47;;
31336;SDS011;22846;42.654;23.314;2022-07-23T17:10:18;9.40;;;7.40;;
31336;SDS011;22846;42.654;23.314;2022-07-23T17:12:44;14.13;;;7.65;;
31336;SDS011;22846;42.654;23.314;2022-07-23T17:15:10;9.10;;;6.97;;
31336;SDS011;22846;42.654;23.314;2022-07-23T17:17:35;11.00;;;7.35;;
31336;SDS011;22846;42.654;23.314;2022-07-23T17:20:02;10.65;;;6.97;;
31336;SDS011;22846;42.654;23.314;2022-07-23T17:22:30;8.63;;;6.90;;
31336;SDS011;22846;42.654;23.314;2022-07-23T17:24:55;9.82;;;6.88;;
31336;SDS011;22846;42.654;23.314;2022-07-23T17:27:21;7.43;;;6.22;;
31336;SDS011;22846;42.654;23.314;2022-07-23T17:29:46;8.65;;;6.70;;
31336;SDS011;22846;42.654;23.314;2022-07-23T17:32:11;8.55;;;6.55;;
31336;SDS011;22846;42.654;23.314;2022-07-23T17:34:37;8.82;;;6.55;;
31336;SDS011;22846;42.654;23.314;2022-07-23T17:37:02;9.13;;;6.47;;
31336;SDS011;22846;42.654;23.314;2022-07-23T17:39:28;8.13;;;6.38;;
31336;SDS011;22846;42.654;23.314;2022-07-23T17:41:53;7.53;;;6.35;;
31336;SDS011;22846;42.654;23.314;2022-07-23T17:44:19;7.60;;;6.43;;
31336;SDS011;22846;42.654;23.314;2022-07-23T17:46:45;8.23;;;5.93;;
31336;SDS011;22846;42.654;23.314;2022-07-23T17:49:11;7.70;;;5.90;;
31336;SDS011;22846;42.654;23.314;2022-07-23T17:51:37;6.82;;;5.88;;
31336;SDS011;22846;42.654;23.314;2022-07-23T17:54:03;8.75;;;6.43;;
31336;SDS011;22846;42.654;23.314;2022-07-23T17:56:29;7.50;;;6.13;;
31336;SDS011;22846;42.654;23.314;2022-07-23T17:58:55;7.50;;;5.78;;
31336;SDS011;22846;42.654;23.314;2022-07-23T18:01:20;6.78;;;5.57;;
31336;SDS011;22846;42.654;23.314;2022-07-23T18:03:46;6.88;;;5.80;;
31336;SDS011;22846;42.654;23.314;2022-07-23T18:06:14;6.75;;;5.38;;
31336;SDS011;22846;42.654;23.314;2022-07-23T18:08:40;6.72;;;5.57;;
31336;SDS011;22846;42.654;23.314;2022-07-23T18:11:06;6.70;;;5.45;;
31336;SDS011;22846;42.654;23.314;2022-07-23T18:13:31;7.63;;;5.70;;
31336;SDS011;22846;42.654;23.314;2022-07-23T18:15:57;6.10;;;5.20;;
31336;SDS011;22846;42.654;23.314;2022-07-23T18:18:23;5.78;;;5.18;;
31336;SDS011;22846;42.654;23.314;2022-07-23T18:20:50;5.80;;;4.65;;
31336;SDS011;22846;42.654;23.314;2022-07-23T18:23:16;6.15;;;5.13;;
31336;SDS011;22846;42.654;23.314;2022-07-23T18:25:42;6.63;;;5.53;;
31336;SDS011;22846;42.654;23.314;2022-07-23T18:28:08;5.32;;;4.68;;
31336;SDS011;22846;42.654;23.314;2022-07-23T18:30:33;6.13;;;5.10;;
31336;SDS011;22846;42.654;23.314;2022-07-23T18:32:59;6.72;;;4.82;;
31336;SDS011;22846;42.654;23.314;2022-07-23T18:35:24;12.63;;;5.35;;
31336;SDS011;22846;42.654;23.314;2022-07-23T18:37:50;14.48;;;6.53;;
31336;SDS011;22846;42.654;23.314;2022-07-23T18:40:16;9.02;;;5.55;;
31336;SDS011;22846;42.654;23.314;2022-07-23T18:42:42;8.90;;;6.10;;
31336;SDS011;22846;42.654;23.314;2022-07-23T18:45:08;13.90;;;7.20;;
31336;SDS011;22846;42.654;23.314;2022-07-23T18:47:36;14.40;;;9.07;;
31336;SDS011;22846;42.654;23.314;2022-07-23T18:50:05;14.60;;;8.48;;
31336;SDS011;22846;42.654;23.314;2022-07-23T18:52:33;17.75;;;9.35;;
31336;SDS011;22846;42.654;23.314;2022-07-23T18:54:59;14.98;;;9.32;;
31336;SDS011;22846;42.654;23.314;2022-07-23T18:57:24;14.00;;;9.23;;
31336;SDS011;22846;42.654;23.314;2022-07-23T18:59:50;15.25;;;8.27;;
31336;SDS011;22846;42.654;23.314;2022-07-23T19:02:15;13.48;;;8.45;;
31336;SDS011;22846;42.654;23.314;2022-07-23T19:04:42;18.65;;;8.07;;
31336;SDS011;22846;42.654;23.314;2022-07-23T19:07:07;10.60;;;7.15;;
31336;SDS011;22846;42.654;23.314;2022-07-23T19:09:33;11.43;;;7.57;;
31336;SDS011;22846;42.654;23.314;2022-07-23T19:11:58;12.77;;;7.55;;
31336;SDS011;22846;42.654;23.314;2022-07-23T19:14:23;12.05;;;7.30;;
31336;SDS011;22846;42.654;23.314;2022-07-23T19:16:49;11.65;;;7.25;;
31336;SDS011;22846;42.654;23.314;2022-07-23T19:19:14;11.05;;;7.38;;
31336;SDS011;22846;42.654;23.314;2022-07-23T19:21:40;10.35;;;6.97;;
31336;SDS011;22846;42.654;23.314;2022-07-23T19:24:06;10.35;;;6.18;;
31336;SDS011;22846;42.654;23.314;2022-07-23T19:26:32;9.57;;;6.75;;
31336;SDS011;22846;42.654;23.314;2022-07-23T19:28:57;10.65;;;6.47;;
31336;SDS011;22846;42.654;23.314;2022-07-23T19:31:23;12.65;;;6.75;;
31336;SDS011;22846;42.654;23.314;2022-07-23T19:33:48;11.30;;;6.43;;
31336;SDS011;22846;42.654;23.314;2022-07-23T19:36:14;8.80;;;6.75;;
31336;SDS011;22846;42.654;23.314;2022-07-23T19:38:40;15.95;;;7.05;;
31336;SDS011;22846;42.654;23.314;2022-07-23T19:41:06;9.85;;;6.63;;
31336;SDS011;22846;42.654;23.314;2022-07-23T19:43:33;11.93;;;7.20;;
31336;SDS011;22846;42.654;23.314;2022-07-23T19:45:58;8.70;;;6.30;;
31336;SDS011;22846;42.654;23.314;2022-07-23T19:48:24;12.20;;;7.13;;
31336;SDS011;22846;42.654;23.314;2022-07-23T19:50:51;9.48;;;6.90;;
31336;SDS011;22846;42.654;23.314;2022-07-23T19:53:17;9.90;;;6.90;;
31336;SDS011;22846;42.654;23.314;2022-07-23T19:55:43;10.52;;;7.18;;
31336;SDS011;22846;42.654;23.314;2022-07-23T19:58:08;9.27;;;6.38;;
31336;SDS011;22846;42.654;23.314;2022-07-23T20:00:34;13.48;;;7.07;;
31336;SDS011;22846;42.654;23.314;2022-07-23T20:02:59;13.80;;;6.65;;
31336;SDS011;22846;42.654;23.314;2022-07-23T20:05:24;11.57;;;6.57;;
31336;SDS011;22846;42.654;23.314;2022-07-23T20:07:50;10.50;;;6.95;;
31336;SDS011;22846;42.654;23.314;2022-07-23T20:10:15;10.32;;;7.38;;
31336;SDS011;22846;42.654;23.314;2022-07-23T20:12:41;12.32;;;7.07;;
31336;SDS011;22846;42.654;23.314;2022-07-23T20:15:07;9.73;;;6.65;;
31336;SDS011;22846;42.654;23.314;2022-07-23T20:17:33;16.02;;;7.57;;
31336;SDS011;22846;42.654;23.314;2022-07-23T20:19:59;13.57;;;6.55;;
31336;SDS011;22846;42.654;23.314;2022-07-23T20:22:25;12.23;;;7.13;;
31336;SDS011;22846;42.654;23.314;2022-07-23T20:24:50;14.63;;;7.72;;
31336;SDS011;22846;42.654;23.314;2022-07-23T20:27:16;13.63;;;6.88;;
31336;SDS011;22846;42.654;23.314;2022-07-23T20:29:41;12.48;;;7.45;;
31336;SDS011;22846;42.654;23.314;2022-07-23T20:32:06;16.00;;;7.75;;
31336;SDS011;22846;42.654;23.314;2022-07-23T20:34:32;12.13;;;6.80;;
31336;SDS011;22846;42.654;23.314;2022-07-23T20:36:58;12.68;;;6.85;;
31336;SDS011;22846;42.654;23.314;2022-07-23T20:39:24;15.40;;;7.00;;
31336;SDS011;22846;42.654;23.314;2022-07-23T20:41:50;13.18;;;6.80;;
31336;SDS011;22846;42.654;23.314;2022-07-23T20:44:15;14.48;;;6.88;;
31336;SDS011;22846;42.654;23.314;2022-07-23T20:46:41;12.40;;;7.68;;
31336;SDS011;22846;42.654;23.314;2022-07-23T20:49:07;13.80;;;6.78;;
31336;SDS011;22846;42.654;23.314;2022-07-23T20:51:33;14.75;;;7.55;;
31336;SDS011;22846;42.654;23.314;2022-07-23T20:53:59;14.02;;;7.22;;
31336;SDS011;22846;42.654;23.314;2022-07-23T20:56:25;12.27;;;7.88;;
31336;SDS011;22846;42.654;23.314;2022-07-23T20:58:51;11.68;;;6.82;;
31336;SDS011;22846;42.654;23.314;2022-07-23T21:01:17;15.00;;;7.60;;
31336;SDS011;22846;42.654;23.314;2022-07-23T21:03:43;15.38;;;8.38;;
31336;SDS011;22846;42.654;23.314;2022-07-23T21:06:08;14.13;;;7.43;;
31336;SDS011;22846;42.654;23.314;2022-07-23T21:08:34;13.10;;;7.45;;
31336;SDS011;22846;42.654;23.314;2022-07-23T21:11:00;13.55;;;7.45;;
31336;SDS011;22846;42.654;23.314;2022-07-23T21:13:25;17.25;;;7.25;;
31336;SDS011;22846;42.654;23.314;2022-07-23T21:15:51;13.75;;;7.22;;
31336;SDS011;22846;42.654;23.314;2022-07-23T21:18:16;15.93;;;7.30;;
31336;SDS011;22846;42.654;23.314;2022-07-23T21:20:42;18.30;;;7.88;;
31336;SDS011;22846;42.654;23.314;2022-07-23T21:23:26;16.88;;;7.93;;
31336;SDS011;22846;42.654;23.314;2022-07-23T21:25:51;18.77;;;7.72;;
31336;SDS011;22846;42.654;23.314;2022-07-23T21:28:17;17.40;;;7.80;;
31336;SDS011;22846;42.654;23.314;2022-07-23T21:30:42;17.40;;;8.00;;
31336;SDS011;22846;42.654;23.314;2022-07-23T21:33:08;17.08;;;8.07;;
31336;SDS011;22846;42.654;23.314;2022-07-23T21:35:34;16.85;;;8.07;;
31336;SDS011;22846;42.654;23.314;2022-07-23T21:37:59;14.27;;;7.90;;
31336;SDS011;22846;42.654;23.314;2022-07-23T21:40:24;17.02;;;8.35;;
31336;SDS011;22846;42.654;23.314;2022-07-23T21:42:51;16.23;;;8.75;;
31336;SDS011;22846;42.654;23.314;2022-07-23T21:45:16;18.02;;;8.63;;
31336;SDS011;22846;42.654;23.314;2022-07-23T21:47:42;17.23;;;8.00;;
31336;SDS011;22846;42.654;23.314;2022-07-23T21:50:07;20.55;;;7.95;;
31336;SDS011;22846;42.654;23.314;2022-07-23T21:52:35;15.60;;;8.02;;
31336;SDS011;22846;42.654;23.314;2022-07-23T21:55:01;18.50;;;8.38;;
31336;SDS011;22846;42.654;23.314;2022-07-23T21:57:26;12.93;;;7.65;;
31336;SDS011;22846;42.654;23.314;2022-07-23T21:59:51;13.80;;;7.70;;
31336;SDS011;22846;42.654;23.314;2022-07-23T22:02:17;20.38;;;8.65;;
31336;SDS011;22846;42.654;23.314;2022-07-23T22:04:44;17.40;;;7.90;;
31336;SDS011;22846;42.654;23.314;2022-07-23T22:07:10;17.52;;;7.65;;
31336;SDS011;22846;42.654;23.314;2022-07-23T22:09:36;12.63;;;8.20;;
31336;SDS011;22846;42.654;23.314;2022-07-23T22:12:02;18.02;;;8.50;;
31336;SDS011;22846;42.654;23.314;2022-07-23T22:14:28;13.75;;;7.78;;
31336;SDS011;22846;42.654;23.314;2022-07-23T22:16:54;25.13;;;8.65;;
31336;SDS011;22846;42.654;23.314;2022-07-23T22:19:19;17.00;;;8.30;;
31336;SDS011;22846;42.654;23.314;2022-07-23T22:21:45;22.33;;;8.75;;
31336;SDS011;22846;42.654;23.314;2022-07-23T22:24:11;18.95;;;8.50;;
31336;SDS011;22846;42.654;23.314;2022-07-23T22:26:41;20.55;;;8.57;;
31336;SDS011;22846;42.654;23.314;2022-07-23T22:29:07;16.92;;;8.00;;
31336;SDS011;22846;42.654;23.314;2022-07-23T22:31:33;22.23;;;9.18;;
31336;SDS011;22846;42.654;23.314;2022-07-23T22:33:58;17.40;;;7.97;;
31336;SDS011;22846;42.654;23.314;2022-07-23T22:36:24;15.35;;;7.07;;
31336;SDS011;22846;42.654;23.314;2022-07-23T22:38:49;18.25;;;8.10;;
31336;SDS011;22846;42.654;23.314;2022-07-23T22:41:14;17.83;;;7.65;;
31336;SDS011;22846;42.654;23.314;2022-07-23T22:43:40;14.20;;;7.68;;
31336;SDS011;22846;42.654;23.314;2022-07-23T22:46:05;14.57;;;8.65;;
31336;SDS011;22846;42.654;23.314;2022-07-23T22:48:31;22.40;;;8.57;;
31336;SDS011;22846;42.654;23.314;2022-07-23T22:50:57;17.25;;;8.05;;
31336;SDS011;22846;42.654;23.314;2022-07-23T22:53:22;17.45;;;8.40;;
31336;SDS011;22846;42.654;23.314;2022-07-23T22:55:47;15.75;;;8.57;;
31336;SDS011;22846;42.654;23.314;2022-07-23T22:58:13;15.75;;;8.25;;
31336;SDS011;22846;42.654;23.314;2022-07-23T23:00:38;20.33;;;8.90;;
31336;SDS011;22846;42.654;23.314;2022-07-23T23:03:04;19.50;;;7.97;;
31336;SDS011;22846;42.654;23.314;2022-07-23T23:05:29;15.40;;;8.18;;
31336;SDS011;22846;42.654;23.314;2022-07-23T23:07:55;17.80;;;8.20;;
31336;SDS011;22846;42.654;23.314;2022-07-23T23:10:20;18.05;;;8.38;;
31336;SDS011;22846;42.654;23.314;2022-07-23T23:12:46;15.23;;;7.75;;
31336;SDS011;22846;42.654;23.314;2022-07-23T23:15:11;14.00;;;7.20;;
31336;SDS011;22846;42.654;23.314;2022-07-23T23:17:37;16.33;;;8.15;;
31336;SDS011;22846;42.654;23.314;2022-07-23T23:20:02;19.42;;;8.40;;
31336;SDS011;22846;42.654;23.314;2022-07-23T23:22:28;18.48;;;8.23;;
31336;SDS011;22846;42.654;23.314;2022-07-23T23:24:54;17.92;;;7.70;;
31336;SDS011;22846;42.654;23.314;2022-07-23T23:27:19;20.52;;;8.15;;
31336;SDS011;22846;42.654;23.314;2022-07-23T23:29:45;16.10;;;7.75;;
31336;SDS011;22846;42.654;23.314;2022-07-23T23:32:10;59.83;;;35.45;;
31336;SDS011;22846;42.654;23.314;2022-07-23T23:34:35;43.30;;;24.17;;
31336;SDS011;22846;42.654;23.314;2022-07-23T23:37:01;29.70;;;14.90;;
31336;SDS011;22846;42.654;23.314;2022-07-23T23:39:26;27.60;;;13.52;;
31336;SDS011;22846;42.654;23.314;2022-07-23T23:41:52;22.27;;;10.45;;
31336;SDS011;22846;42.654;23.314;2022-07-23T23:44:17;17.80;;;9.82;;
31336;SDS011;22846;42.654;23.314;2022-07-23T23:46:46;16.52;;;9.23;;
31336;SDS011;22846;42.654;23.314;2022-07-23T23:49:12;21.30;;;9.40;;
31336;SDS011;22846;42.654;23.314;2022-07-23T23:51:38;19.58;;;8.55;;
31336;SDS011;22846;42.654;23.314;2022-07-23T23:54:06;20.10;;;9.13;;
31336;SDS011;22846;42.654;23.314;2022-07-23T23:56:33;20.73;;;8.80;;
31336;SDS011;22846;42.654;23.314;2022-07-23T23:58:58;21.58;;;8.63;;
